Buck Shoals, North Carolina
Current Conditions -  °F | °C
As of 12:15 PM on Thursday 27 Nov 2014 (Local Time) from KUKF Reporting Station
Overcast Overcast  
Wind Chill: 37°   Ceiling: 4700
Heat Index: 43°   Visibility: 10mi
Dew Point: 32°   Wind: 10mph
Humidity: 66%   Direction: 300°WNW
Pressure: 30.15"   Gusts: NA
Location:  36.116°N, 80.8154°W
Report Text: KUKF 271715Z AUTO 30009KT 10SM SCT036 OVC047 06/00 A3015 RMK AO2
Loading
Personal Weather Stations






























Interactive Weather Map New forecast layout! Learn more

10-Day Weather Forecast

Advertisements
Track Severe Weather on mobile